Time;durP1;ratioP1;P1;durP2;ratioP2;P2;SDS_P1;SDS_P2;PMS_P1;PMS_P2;Temp;Humidity;BMP_temperature;BMP_pressure;BME280_temperature;BME280_humidity;BME280_pressure;Samples;Min_cycle;Max_cycle;Signal;HPM_P1;HPM_P2
2023/07/20 00:01:19;;;;;;;;;;;;;;;17.79;73.27;95788.22;5032536;28;19925;-75
2023/07/20 00:03:48;;;;;;;;;;;;;;;17.76;74.74;95783.28;5032482;28;19921;-75
2023/07/20 00:06:14;;;;;;;;;;;;;;;17.78;74.48;95785.75;5032354;28;19928;-75
2023/07/20 00:08:40;;;;;;;;;;;;;;;17.90;73.83;95789.88;5031982;28;19936;-74
2023/07/20 00:11:07;;;;;;;;;;;;;;;17.78;74.34;95777.91;5030313;28;20458;-75
2023/07/20 00:13:34;;;;;;;;;;;;;;;17.78;74.76;95791.00;5032436;28;20322;-75
2023/07/20 00:16:01;;;;;;;;;;;;;;;17.91;73.48;95788.91;5031954;28;19925;-75
2023/07/20 00:18:27;;;;;;;;;;;;;;;18.02;72.58;95790.53;5032040;28;19978;-75
2023/07/20 00:20:53;;;;;;;;;;;;;;;17.96;71.82;95791.13;5032167;28;20342;-75
2023/07/20 00:23:20;;;;;;;;;;;;;;;17.89;72.30;95788.22;5032067;28;19928;-75
2023/07/20 00:25:47;;;;;;;;;;;;;;;17.68;73.50;95785.72;5032101;28;19943;-75
2023/07/20 00:28:14;;;;;;;;;;;;;;;17.59;73.84;95789.19;5032005;28;19932;-75
2023/07/20 00:30:41;;;;;;;;;;;;;;;17.32;74.67;95782.88;5031583;28;20342;-75
2023/07/20 00:33:11;;;;;;;;;;;;;;;17.17;75.59;95779.00;5028690;28;19932;-74
2023/07/20 00:35:37;;;;;;;;;;;;;;;17.06;76.46;95786.97;5028763;28;19929;-75
2023/07/20 00:38:03;;;;;;;;;;;;;;;17.04;76.71;95784.47;5032123;28;20036;-75
2023/07/20 00:40:36;;;;;;;;;;;;;;;17.25;76.25;95788.78;5031956;28;19975;-75
2023/07/20 00:43:03;;;;;;;;;;;;;;;17.38;75.84;95789.31;5032271;28;20329;-75
2023/07/20 00:45:30;;;;;;;;;;;;;;;17.20;77.71;95783.13;5031794;28;19921;-75
2023/07/20 00:47:58;;;;;;;;;;;;;;;17.29;76.72;95785.75;5031776;28;19925;-75
2023/07/20 00:50:24;;;;;;;;;;;;;;;17.25;77.60;95781.75;5026532;28;20346;-74
2023/07/20 00:52:51;;;;;;;;;;;;;;;17.10;77.98;95783.13;5031840;28;19925;-75
2023/07/20 00:55:18;;;;;;;;;;;;;;;16.89;80.11;95788.44;5031595;28;19932;-75
2023/07/20 00:57:45;;;;;;;;;;;;;;;16.76;81.41;95790.47;5031768;28;19924;-74
2023/07/20 01:00:12;;;;;;;;;;;;;;;16.57;82.54;95793.81;5031275;28;20369;-75
2023/07/20 01:02:38;;;;;;;;;;;;;;;16.57;81.68;95789.41;5031454;28;19949;-75
2023/07/20 01:05:07;;;;;;;;;;;;;;;16.52;80.79;95790.78;5031402;28;19929;-75
2023/07/20 01:07:35;;;;;;;;;;;;;;;16.50;81.57;95796.16;5023107;28;20437;-75
2023/07/20 01:10:03;;;;;;;;;;;;;;;16.40;81.96;95788.28;5026236;28;19925;-75
2023/07/20 01:12:33;;;;;;;;;;;;;;;16.55;81.58;95793.16;5031427;28;19921;-74
2023/07/20 01:15:00;;;;;;;;;;;;;;;16.62;81.44;95796.88;5026334;28;20307;-74
2023/07/20 01:17:26;;;;;;;;;;;;;;;16.60;81.28;95786.53;5030511;28;19924;-74
2023/07/20 01:19:52;;;;;;;;;;;;;;;16.56;82.08;95782.53;5030701;28;20395;-75
2023/07/20 01:22:32;;;;;;;;;;;;;;;16.64;81.29;95785.31;5030003;28;19967;-74
2023/07/20 01:25:08;;;;;;;;;;;;;;;16.70;81.38;95794.44;5031171;28;19928;-75
2023/07/20 01:27:50;;;;;;;;;;;;;;;16.89;80.70;95786.66;5022357;28;19921;-75
2023/07/20 01:30:34;;;;;;;;;;;;;;;17.06;79.44;95782.56;5029808;28;19921;-75
2023/07/20 01:33:02;;;;;;;;;;;;;;;17.13;78.86;95783.69;5015322;28;19921;-75
2023/07/20 01:35:30;;;;;;;;;;;;;;;17.20;78.82;95781.31;5031014;28;19921;-75
2023/07/20 01:37:57;;;;;;;;;;;;;;;17.12;81.01;95779.38;5031255;28;19921;-75
2023/07/20 01:40:25;;;;;;;;;;;;;;;17.02;81.87;95775.09;5030937;28;19982;-74
2023/07/20 01:42:52;;;;;;;;;;;;;;;16.96;82.21;95778.28;5031244;28;19921;-75
2023/07/20 01:45:18;;;;;;;;;;;;;;;16.88;83.38;95781.56;5030682;28;20379;-75
2023/07/20 01:47:44;;;;;;;;;;;;;;;16.71;82.85;95777.78;5024972;28;20399;-75
2023/07/20 01:50:12;;;;;;;;;;;;;;;16.72;83.64;95778.59;5028746;28;19925;-75
2023/07/20 01:52:38;;;;;;;;;;;;;;;16.76;82.67;95778.25;5030709;28;19921;-75
2023/07/20 01:55:05;;;;;;;;;;;;;;;16.67;84.72;95781.63;5025175;28;19925;-75
2023/07/20 01:57:31;;;;;;;;;;;;;;;16.55;85.84;95785.31;5029331;28;19921;-74
2023/07/20 01:59:57;;;;;;;;;;;;;;;16.42;87.56;95790.75;5030931;28;19932;-75
2023/07/20 02:02:24;;;;;;;;;;;;;;;16.32;88.44;95787.28;5030779;28;19925;-75
2023/07/20 02:04:51;;;;;;;;;;;;;;;16.36;88.30;95786.88;5026225;28;20337;-75
2023/07/20 02:07:18;;;;;;;;;;;;;;;16.42;87.76;95778.50;5028799;28;19929;-74
2023/07/20 02:09:45;;;;;;;;;;;;;;;16.49;87.14;95780.59;5030900;28;19920;-75
2023/07/20 02:12:11;;;;;;;;;;;;;;;16.48;86.20;95776.34;5030772;28;20333;-75
2023/07/20 02:14:37;;;;;;;;;;;;;;;16.37;89.68;95782.47;5030895;28;19956;-75
2023/07/20 02:17:04;;;;;;;;;;;;;;;16.30;89.98;95782.16;5030675;28;19921;-75
2023/07/20 02:19:31;;;;;;;;;;;;;;;16.25;89.86;95778.31;5031899;28;19928;-75
2023/07/20 02:21:57;;;;;;;;;;;;;;;16.23;90.91;95783.66;5034639;28;20365;-75
2023/07/20 02:24:25;;;;;;;;;;;;;;;16.23;90.38;95777.59;5034563;28;19921;-75
2023/07/20 02:26:52;;;;;;;;;;;;;;;16.21;90.63;95773.34;5029671;28;19921;-74
2023/07/20 02:29:18;;;;;;;;;;;;;;;16.23;91.05;95774.97;5031822;28;20417;-74
2023/07/20 02:31:44;;;;;;;;;;;;;;;16.16;91.81;95778.09;5031281;28;19925;-75
2023/07/20 02:34:10;;;;;;;;;;;;;;;15.99;94.48;95785.75;5034121;28;19928;-75
2023/07/20 02:36:37;;;;;;;;;;;;;;;15.98;93.14;95782.28;5034042;28;20007;-75
2023/07/20 02:39:03;;;;;;;;;;;;;;;15.99;92.89;95789.19;5033950;28;20310;-74
2023/07/20 02:41:31;;;;;;;;;;;;;;;16.01;93.72;95794.25;5034049;28;19967;-74
2023/07/20 02:43:58;;;;;;;;;;;;;;;15.94;94.17;95794.78;5033992;28;19921;-75
2023/07/20 02:46:24;;;;;;;;;;;;;;;15.90;94.40;95792.53;5033874;28;19925;-75
2023/07/20 02:48:50;;;;;;;;;;;;;;;15.75;96.17;95797.25;5030771;28;20577;-74
2023/07/20 02:51:16;;;;;;;;;;;;;;;15.57;98.57;95794.34;5031906;28;19924;-74
2023/07/20 02:53:43;;;;;;;;;;;;;;;15.63;97.34;95799.06;5028166;28;19932;-74
2023/07/20 02:56:09;;;;;;;;;;;;;;;15.61;97.24;95795.78;5030648;28;20366;-74
2023/07/20 02:58:43;;;;;;;;;;;;;;;15.66;97.14;95788.41;5033829;28;19983;-74
2023/07/20 03:01:09;;;;;;;;;;;;;;;15.63;96.31;95783.41;5031190;28;19943;-74
2023/07/20 03:03:38;;;;;;;;;;;;;;;15.70;94.83;95792.44;5026292;28;20387;-74
2023/07/20 03:06:05;;;;;;;;;;;;;;;15.69;95.59;95790.78;5033371;28;20408;-75
2023/07/20 03:08:31;;;;;;;;;;;;;;;15.79;94.94;95792.63;5033543;28;19922;-75
2023/07/20 03:10:57;;;;;;;;;;;;;;;15.71;96.49;95791.47;5032417;28;20024;-74
2023/07/20 03:13:24;;;;;;;;;;;;;;;15.39;100.00;95795.88;5029748;28;19928;-75
2023/07/20 03:15:52;;;;;;;;;;;;;;;15.26;98.75;95796.03;5026965;28;20422;-75
2023/07/20 03:18:18;;;;;;;;;;;;;;;15.13;100.00;95795.34;5033331;28;19921;-75
2023/07/20 03:20:45;;;;;;;;;;;;;;;14.97;100.00;95790.53;5031106;28;19921;-74
2023/07/20 03:23:12;;;;;;;;;;;;;;;14.80;100.00;95796.28;5033344;28;20239;-75
2023/07/20 03:25:38;;;;;;;;;;;;;;;14.73;100.00;95796.78;5030924;28;19921;-75
2023/07/20 03:28:05;;;;;;;;;;;;;;;14.80;100.00;95797.13;5033181;28;20016;-74
2023/07/20 03:30:32;;;;;;;;;;;;;;;14.87;100.00;95798.28;5032447;28;19921;-74
2023/07/20 03:32:59;;;;;;;;;;;;;;;14.99;100.00;95793.88;5027000;28;19975;-74
2023/07/20 03:35:25;;;;;;;;;;;;;;;15.08;100.00;95800.94;5023865;28;19921;-74
2023/07/20 03:37:52;;;;;;;;;;;;;;;15.12;100.00;95806.75;5032881;28;19925;-75
2023/07/20 03:40:18;;;;;;;;;;;;;;;15.09;100.00;95810.47;5027449;28;19921;-73
2023/07/20 03:42:44;;;;;;;;;;;;;;;15.11;100.00;95803.31;5033197;28;19925;-74
2023/07/20 03:45:11;;;;;;;;;;;;;;;15.11;100.00;95800.72;5030977;28;19921;-74
2023/07/20 03:47:37;;;;;;;;;;;;;;;15.18;100.00;95804.47;5026786;28;19925;-74
2023/07/20 03:50:05;;;;;;;;;;;;;;;15.22;100.00;95805.88;5024859;28;19979;-74
2023/07/20 03:52:32;;;;;;;;;;;;;;;15.25;100.00;95805.66;5024818;28;20379;-74
2023/07/20 03:54:58;;;;;;;;;;;;;;;15.25;100.00;95805.66;5033062;28;19983;-74
2023/07/20 03:57:24;;;;;;;;;;;;;;;15.12;100.00;95807.56;5032931;28;19996;-75
2023/07/20 03:59:50;;;;;;;;;;;;;;;15.10;100.00;95808.66;5032968;28;19921;-74
2023/07/20 04:02:17;;;;;;;;;;;;;;;15.08;100.00;95807.94;5028581;28;19936;-74
2023/07/20 04:04:43;;;;;;;;;;;;;;;14.72;100.00;95818.59;5019825;28;19929;-74
2023/07/20 04:07:11;;;;;;;;;;;;;;;14.71;100.00;95811.69;5030533;28;19928;-74
2023/07/20 04:09:37;;;;;;;;;;;;;;;14.98;100.00;95802.63;5033144;28;19924;-73
2023/07/20 04:12:03;;;;;;;;;;;;;;;15.05;100.00;95809.00;5031594;28;19932;-74
2023/07/20 04:14:30;;;;;;;;;;;;;;;15.20;100.00;95807.81;5027773;28;20408;-74
2023/07/20 04:16:56;;;;;;;;;;;;;;;15.34;100.00;95809.28;5025356;28;19930;-74
2023/07/20 04:19:22;;;;;;;;;;;;;;;15.46;100.00;95818.75;5032678;28;19924;-75
2023/07/20 04:21:48;;;;;;;;;;;;;;;15.51;100.00;95818.38;5032561;28;19921;-74
2023/07/20 04:24:16;;;;;;;;;;;;;;;15.58;100.00;95816.09;5032525;28;19932;-74
2023/07/20 04:26:42;;;;;;;;;;;;;;;15.66;100.00;95817.13;5032075;28;19940;-74
2023/07/20 04:29:09;;;;;;;;;;;;;;;15.81;100.00;95822.06;5032527;28;20379;-75
2023/07/20 04:31:35;;;;;;;;;;;;;;;15.80;100.00;95825.63;5032413;28;19928;-73
2023/07/20 04:34:02;;;;;;;;;;;;;;;15.72;100.00;95814.03;5027280;28;19968;-74
2023/07/20 04:36:28;;;;;;;;;;;;;;;15.61;100.00;95816.66;5031840;28;19921;-74
2023/07/20 04:38:54;;;;;;;;;;;;;;;15.72;100.00;95823.63;5032027;28;20294;-74
2023/07/20 04:41:22;;;;;;;;;;;;;;;15.85;100.00;95824.28;5032522;28;19970;-74
2023/07/20 04:43:48;;;;;;;;;;;;;;;15.89;100.00;95819.63;5032476;28;19925;-74
2023/07/20 04:46:14;;;;;;;;;;;;;;;15.92;100.00;95820.19;5032371;28;19921;-75
2023/07/20 04:48:41;;;;;;;;;;;;;;;15.97;100.00;95820.63;5032712;28;20370;-74
2023/07/20 04:51:07;;;;;;;;;;;;;;;16.00;100.00;95826.56;5032371;28;20020;-74
2023/07/20 04:53:33;;;;;;;;;;;;;;;16.02;100.00;95825.50;5032524;28;19936;-74
2023/07/20 04:56:00;;;;;;;;;;;;;;;16.02;99.87;95824.63;5031930;28;20397;-74
2023/07/20 04:58:27;;;;;;;;;;;;;;;16.07;100.00;95825.94;5032464;28;19921;-74
2023/07/20 05:00:53;;;;;;;;;;;;;;;16.06;100.00;95821.66;5032370;28;19932;-75
2023/07/20 05:03:20;;;;;;;;;;;;;;;16.04;100.00;95822.75;5032179;28;19928;-74
2023/07/20 05:05:47;;;;;;;;;;;;;;;16.12;100.00;95823.75;5031696;28;19921;-75
2023/07/20 05:08:13;;;;;;;;;;;;;;;16.12;99.85;95833.38;5035942;28;19925;-73
2023/07/20 05:10:39;;;;;;;;;;;;;;;16.19;99.35;95826.69;5040412;28;20590;-73
2023/07/20 05:13:06;;;;;;;;;;;;;;;16.11;100.00;95824.72;5034590;28;19925;-74
2023/07/20 05:15:35;;;;;;;;;;;;;;;16.15;100.00;95826.09;5032281;28;19929;-74
2023/07/20 05:18:01;;;;;;;;;;;;;;;16.16;99.53;95816.47;5032257;28;19964;-75
2023/07/20 05:20:27;;;;;;;;;;;;;;;16.11;99.92;95822.09;5031602;28;19929;-74
2023/07/20 05:22:54;;;;;;;;;;;;;;;16.17;99.61;95829.44;5031400;28;20007;-73
2023/07/20 05:25:22;;;;;;;;;;;;;;;16.19;99.12;95826.69;5031204;28;19921;-74
2023/07/20 05:27:48;;;;;;;;;;;;;;;16.20;99.58;95825.72;5031041;28;19928;-73
2023/07/20 05:30:15;;;;;;;;;;;;;;;16.26;98.22;95821.75;5031799;28;19921;-74
2023/07/20 05:32:45;;;;;;;;;;;;;;;16.36;98.11;95817.41;5031112;28;19940;-74
2023/07/20 05:35:11;;;;;;;;;;;;;;;16.38;97.97;95813.69;5031187;28;19921;-74
2023/07/20 05:37:38;;;;;;;;;;;;;;;16.42;98.08;95814.25;5031284;28;19983;-74
2023/07/20 05:40:04;;;;;;;;;;;;;;;16.47;97.34;95814.72;5031391;28;19925;-74
2023/07/20 05:42:31;;;;;;;;;;;;;;;16.56;97.38;95818.31;5030541;28;19925;-74
2023/07/20 05:44:57;;;;;;;;;;;;;;;16.61;96.73;95814.38;5029059;28;19929;-74
2023/07/20 05:47:24;;;;;;;;;;;;;;;16.68;96.18;95818.09;5031480;28;20318;-74
2023/07/20 05:49:51;;;;;;;;;;;;;;;16.66;96.97;95814.78;5031036;28;19928;-74
2023/07/20 05:52:18;;;;;;;;;;;;;;;16.65;97.56;95821.00;5030728;28;19925;-75
2023/07/20 05:54:44;;;;;;;;;;;;;;;16.70;96.21;95820.59;5032966;28;19929;-74
2023/07/20 05:57:11;;;;;;;;;;;;;;;16.69;97.51;95821.56;5029447;28;19943;-74
2023/07/20 05:59:38;;;;;;;;;;;;;;;16.72;98.10;95825.66;5034973;28;20390;-74
2023/07/20 06:02:04;;;;;;;;;;;;;;;16.73;97.58;95825.56;5034289;28;20314;-74
2023/07/20 06:04:31;;;;;;;;;;;;;;;16.66;97.40;95827.88;5032851;28;19929;-74
2023/07/20 06:06:58;;;;;;;;;;;;;;;16.57;98.64;95825.19;5034656;28;19928;-74
2023/07/20 06:09:24;;;;;;;;;;;;;;;16.55;98.99;95825.34;5026663;28;19921;-75
2023/07/20 06:11:51;;;;;;;;;;;;;;;16.59;99.70;95831.97;5034024;28;19967;-75
2023/07/20 06:14:18;;;;;;;;;;;;;;;16.74;98.00;95829.03;5034356;28;20338;-75
2023/07/20 06:16:44;;;;;;;;;;;;;;;16.75;97.11;95831.50;5034998;28;20019;-75
2023/07/20 06:19:12;;;;;;;;;;;;;;;16.80;98.30;95836.34;5026334;28;20422;-73
2023/07/20 06:21:38;;;;;;;;;;;;;;;16.77;96.20;95836.59;5028158;28;19979;-73
2023/07/20 06:24:06;;;;;;;;;;;;;;;16.85;96.19;95834.97;5034432;28;20035;-73
2023/07/20 06:26:38;;;;;;;;;;;;;;;16.90;96.46;95826.72;5034257;28;19979;-73
2023/07/20 06:29:04;;;;;;;;;;;;;;;16.93;97.04;95831.69;5026368;28;20032;-73
2023/07/20 06:31:30;;;;;;;;;;;;;;;17.05;96.14;95833.22;5034321;28;19921;-74
2023/07/20 06:33:56;;;;;;;;;;;;;;;17.00;96.52;95832.00;5034565;28;19925;-75
2023/07/20 06:36:23;;;;;;;;;;;;;;;17.03;94.87;95823.88;5032525;28;20325;-76
2023/07/20 06:38:49;;;;;;;;;;;;;;;17.32;95.00;95816.91;5034669;28;19928;-75
2023/07/20 06:41:17;;;;;;;;;;;;;;;17.50;94.75;95824.91;5034292;28;20298;-76
2023/07/20 06:43:43;;;;;;;;;;;;;;;17.61;92.49;95824.75;5033994;28;19976;-75
2023/07/20 06:46:09;;;;;;;;;;;;;;;17.70;92.38;95825.72;5032988;28;19925;-75
2023/07/20 06:48:36;;;;;;;;;;;;;;;17.98;91.15;95829.28;5031425;28;20341;-74
2023/07/20 06:51:02;;;;;;;;;;;;;;;18.14;90.29;95816.44;5031477;28;19979;-74
2023/07/20 06:53:28;;;;;;;;;;;;;;;18.29;89.81;95823.88;5033513;28;19927;-76
2023/07/20 06:55:56;;;;;;;;;;;;;;;18.45;87.23;95821.47;5033109;28;19928;-75
2023/07/20 06:58:24;;;;;;;;;;;;;;;18.46;87.18;95817.03;5033961;28;19921;-75
2023/07/20 07:00:50;;;;;;;;;;;;;;;18.38;86.94;95817.75;5033314;28;20379;-75
2023/07/20 07:03:17;;;;;;;;;;;;;;;18.76;86.50;95818.59;5031966;28;19924;-75
2023/07/20 07:05:44;;;;;;;;;;;;;;;19.06;85.76;95810.44;5029946;28;19921;-75
2023/07/20 07:08:10;;;;;;;;;;;;;;;18.95;82.34;95822.91;5033714;28;19920;-74
2023/07/20 07:10:37;;;;;;;;;;;;;;;18.76;84.96;95815.97;5034534;28;20039;-75
2023/07/20 07:13:03;;;;;;;;;;;;;;;18.77;85.35;95815.03;5034365;28;19928;-75
2023/07/20 07:15:31;;;;;;;;;;;;;;;18.77;84.55;95804.53;5031264;28;19921;-76
2023/07/20 07:17:59;;;;;;;;;;;;;;;18.80;84.92;95807.69;5033576;28;20306;-76
2023/07/20 07:20:26;;;;;;;;;;;;;;;18.94;86.10;95806.34;5030138;28;19924;-76
2023/07/20 07:22:52;;;;;;;;;;;;;;;19.27;82.06;95807.53;5033105;28;20340;-76
2023/07/20 07:25:19;;;;;;;;;;;;;;;19.73;80.86;95802.25;5032128;28;19963;-75
2023/07/20 07:27:45;;;;;;;;;;;;;;;19.75;79.24;95810.78;5052778;28;19924;-75
2023/07/20 07:30:12;;;;;;;;;;;;;;;19.86;78.83;95805.28;5048817;28;19939;-75
2023/07/20 07:32:41;;;;;;;;;;;;;;;20.36;79.28;95803.81;5053360;28;20405;-75
2023/07/20 07:35:07;;;;;;;;;;;;;;;20.93;75.66;95804.13;5048863;28;20011;-76
2023/07/20 07:37:34;;;;;;;;;;;;;;;21.22;70.30;95803.72;5051577;28;19927;-76
2023/07/20 07:40:00;;;;;;;;;;;;;;;21.10;69.63;95804.97;5053667;28;19929;-75
2023/07/20 07:42:26;;;;;;;;;;;;;;;20.65;70.26;95809.56;5052454;28;19921;-76
2023/07/20 07:44:52;;;;;;;;;;;;;;;20.60;71.06;95801.34;5049205;28;20375;-76
2023/07/20 07:47:19;;;;;;;;;;;;;;;20.57;72.36;95806.91;5052450;28;20235;-76
2023/07/20 07:49:46;;;;;;;;;;;;;;;20.93;71.23;95807.56;5052762;28;19967;-76
2023/07/20 07:52:14;;;;;;;;;;;;;;;20.53;72.46;95811.66;5045527;28;20291;-77
2023/07/20 07:54:40;;;;;;;;;;;;;;;20.26;72.69;95807.38;5047191;28;19921;-75
2023/07/20 07:57:06;;;;;;;;;;;;;;;20.21;74.59;95814.06;5053460;28;19925;-76
2023/07/20 07:59:36;;;;;;;;;;;;;;;19.81;76.08;95800.50;5052484;28;19928;-77
2023/07/20 08:02:02;;;;;;;;;;;;;;;19.87;74.60;95804.31;5052999;28;19924;-76
2023/07/20 08:04:29;;;;;;;;;;;;;;;19.82;71.67;95801.31;5053165;28;20302;-77
2023/07/20 08:06:56;;;;;;;;;;;;;;;20.09;72.45;95807.41;5052893;28;19947;-76
2023/07/20 08:09:23;;;;;;;;;;;;;;;20.29;72.75;95791.28;5054591;28;19943;-77
2023/07/20 08:11:49;;;;;;;;;;;;;;;20.00;68.63;95799.47;5064362;28;19921;-76
2023/07/20 08:14:16;;;;;;;;;;;;;;;20.18;66.82;95796.00;5061735;28;20116;-76
2023/07/20 08:16:43;;;;;;;;;;;;;;;20.52;65.80;95794.25;5053577;28;20398;-76
2023/07/20 08:19:09;;;;;;;;;;;;;;;20.35;66.50;95796.91;5053970;28;19928;-76
2023/07/20 08:21:35;;;;;;;;;;;;;;;19.97;64.80;95796.34;5052312;28;19924;-76
2023/07/20 08:24:03;;;;;;;;;;;;;;;20.14;62.60;95799.91;5055203;28;19966;-75
2023/07/20 08:26:30;;;;;;;;;;;;;;;19.98;62.26;95792.72;5052096;28;19920;-77
2023/07/20 08:28:56;;;;;;;;;;;;;;;19.70;62.48;95798.09;5051030;28;19936;-76
2023/07/20 08:31:22;;;;;;;;;;;;;;;19.86;62.58;95792.16;5052095;28;19940;-76
2023/07/20 08:33:49;;;;;;;;;;;;;;;20.26;62.07;95793.41;5051394;28;19928;-76
2023/07/20 08:36:15;;;;;;;;;;;;;;;20.78;60.64;95798.63;5049670;28;19939;-75
2023/07/20 08:38:42;;;;;;;;;;;;;;;20.90;59.40;95793.91;5051039;28;19924;-76
2023/07/20 08:41:10;;;;;;;;;;;;;;;20.74;58.96;95800.75;5051589;28;19975;-76
2023/07/20 08:43:38;;;;;;;;;;;;;;;20.69;61.28;95802.19;5043260;28;19924;-75
2023/07/20 08:46:04;;;;;;;;;;;;;;;20.54;58.31;95792.28;5044610;28;19920;-75
2023/07/20 08:48:31;;;;;;;;;;;;;;;20.87;55.32;95792.41;5046282;28;19929;-77
2023/07/20 08:51:00;;;;;;;;;;;;;;;20.76;55.89;95800.56;5051420;28;19947;-76
2023/07/20 08:53:26;;;;;;;;;;;;;;;20.65;58.54;95806.94;5051200;28;19925;-77
2023/07/20 08:55:53;;;;;;;;;;;;;;;20.59;55.01;95791.81;5048127;28;19978;-77
2023/07/20 08:58:21;;;;;;;;;;;;;;;20.90;54.96;95792.09;5049043;28;20281;-76
2023/07/20 09:00:50;;;;;;;;;;;;;;;21.37;50.96;95782.84;5052770;28;19921;-76
2023/07/20 09:03:16;;;;;;;;;;;;;;;21.43;54.09;95784.81;5053339;28;19921;-77
2023/07/20 09:05:42;;;;;;;;;;;;;;;21.26;54.63;95781.31;5051741;28;19921;-76
2023/07/20 09:08:09;;;;;;;;;;;;;;;20.82;54.40;95765.75;5056165;28;20270;-77
2023/07/20 09:10:35;;;;;;;;;;;;;;;20.91;55.58;95785.00;5052325;28;19933;-76
2023/07/20 09:13:01;;;;;;;;;;;;;;;20.28;56.94;95786.16;5052286;28;20352;-76
2023/07/20 09:15:30;;;;;;;;;;;;;;;20.29;57.29;95782.59;5047138;28;19928;-76
2023/07/20 09:17:56;;;;;;;;;;;;;;;20.16;56.78;95795.31;5051945;28;19936;-75
2023/07/20 09:20:22;;;;;;;;;;;;;;;20.18;54.43;95783.66;5050908;28;19975;-75
2023/07/20 09:22:49;;;;;;;;;;;;;;;20.59;54.19;95796.25;5051331;28;19924;-75
2023/07/20 09:25:19;;;;;;;;;;;;;;;21.17;52.96;95787.53;5051349;28;19924;-74
2023/07/20 09:27:46;;;;;;;;;;;;;;;21.73;50.86;95784.22;5045817;28;19921;-75
2023/07/20 09:30:14;;;;;;;;;;;;;;;22.02;50.30;95787.31;5050638;28;20398;-75
2023/07/20 09:32:43;;;;;;;;;;;;;;;22.33;49.08;95780.38;5049665;28;20374;-75
2023/07/20 09:35:13;;;;;;;;;;;;;;;22.35;46.37;95786.28;5051266;28;19920;-75
2023/07/20 09:37:39;;;;;;;;;;;;;;;21.19;49.36;95785.59;5049692;28;19956;-75
2023/07/20 09:40:08;;;;;;;;;;;;;;;20.62;51.64;95791.50;5051267;28;19925;-74
2023/07/20 09:42:35;;;;;;;;;;;;;;;20.45;52.90;95787.09;5051393;28;19925;-75
2023/07/20 09:45:02;;;;;;;;;;;;;;;20.99;53.79;95785.06;5049642;28;20397;-74
2023/07/20 09:47:29;;;;;;;;;;;;;;;21.30;53.07;95785.28;5051232;28;19921;-74
2023/07/20 09:50:00;;;;;;;;;;;;;;;21.61;50.48;95782.03;5050803;28;19921;-74
2023/07/20 09:52:27;;;;;;;;;;;;;;;21.31;50.37;95784.28;5048338;28;19928;-74
2023/07/20 09:54:53;;;;;;;;;;;;;;;21.34;47.65;95786.63;5048197;28;20028;-75
2023/07/20 09:57:20;;;;;;;;;;;;;;;21.72;48.37;95781.72;5042311;28;19936;-73
2023/07/20 09:59:46;;;;;;;;;;;;;;;21.19;49.21;95778.50;5050192;28;20368;-73
2023/07/20 10:02:17;;;;;;;;;;;;;;;22.07;46.94;95780.56;5053790;28;19920;-74
2023/07/20 10:04:44;;;;;;;;;;;;;;;22.57;45.48;95776.00;5046223;28;20302;-74
2023/07/20 10:07:12;;;;;;;;;;;;;;;22.66;45.83;95785.56;5050325;28;19928;-74
2023/07/20 10:09:40;;;;;;;;;;;;;;;22.39;45.01;95774.41;5049143;28;20413;-73
2023/07/20 10:12:08;;;;;;;;;;;;;;;22.59;42.10;95781.94;5050270;28;20037;-74
2023/07/20 10:14:37;;;;;;;;;;;;;;;22.39;41.60;95770.94;5045803;28;19921;-74
2023/07/20 10:17:04;;;;;;;;;;;;;;;22.75;40.73;95773.94;5050250;28;19928;-74
2023/07/20 10:19:34;;;;;;;;;;;;;;;22.75;42.02;95766.03;5047400;28;19920;-74
2023/07/20 10:22:04;;;;;;;;;;;;;;;22.33;43.45;95766.34;5050704;28;19921;-74
2023/07/20 10:24:32;;;;;;;;;;;;;;;21.96;43.05;95767.72;5046628;28;19921;-74
2023/07/20 10:26:58;;;;;;;;;;;;;;;22.18;42.82;95760.94;5049846;28;19928;-74
2023/07/20 10:29:27;;;;;;;;;;;;;;;22.24;42.69;95768.16;5050174;28;19927;-74
2023/07/20 10:31:54;;;;;;;;;;;;;;;22.86;42.53;95762.19;5048736;28;19921;-74
2023/07/20 10:34:20;;;;;;;;;;;;;;;22.83;42.00;95752.78;5049879;28;20329;-74
2023/07/20 10:36:51;;;;;;;;;;;;;;;23.24;41.59;95741.19;5049921;28;20290;-74
2023/07/20 10:39:25;;;;;;;;;;;;;;;23.08;42.76;95752.69;5050310;28;19943;-74
2023/07/20 10:42:00;;;;;;;;;;;;;;;22.94;43.00;95746.34;5049986;28;20306;-74
2023/07/20 10:44:26;;;;;;;;;;;;;;;23.16;40.46;95755.28;5050396;28;20358;-74
2023/07/20 10:46:59;;;;;;;;;;;;;;;23.12;41.27;95751.34;5052726;28;19921;-74
2023/07/20 10:49:27;;;;;;;;;;;;;;;23.15;41.90;95743.91;5053942;28;20044;-75
2023/07/20 10:51:57;;;;;;;;;;;;;;;23.02;42.31;95742.81;5050042;28;19975;-74
2023/07/20 10:54:36;;;;;;;;;;;;;;;23.24;41.34;95741.19;5047626;28;19920;-74
2023/07/20 10:57:20;;;;;;;;;;;;;;;23.25;42.62;95741.03;5050249;28;20347;-74
2023/07/20 10:59:48;;;;;;;;;;;;;;;22.56;42.99;95742.69;5048905;28;19936;-74
2023/07/20 11:02:18;;;;;;;;;;;;;;;22.84;42.54;95748.31;5052826;28;19928;-75
2023/07/20 11:04:45;;;;;;;;;;;;;;;23.10;42.36;95740.13;5052750;28;19932;-75
2023/07/20 11:07:15;;;;;;;;;;;;;;;22.64;40.53;95732.91;5051772;28;19928;-75
2023/07/20 11:09:42;;;;;;;;;;;;;;;22.55;41.35;95747.16;5053292;28;19925;-75
2023/07/20 11:12:13;;;;;;;;;;;;;;;21.77;42.84;95737.25;5060649;28;19921;-76
2023/07/20 11:14:41;;;;;;;;;;;;;;;21.77;43.74;95741.66;5054032;28;19964;-74
2023/07/20 11:17:13;;;;;;;;;;;;;;;21.91;43.72;95748.91;5052922;28;19921;-73
2023/07/20 11:19:40;;;;;;;;;;;;;;;22.51;42.99;95745.00;5052479;28;20019;-73
2023/07/20 11:22:09;;;;;;;;;;;;;;;22.32;41.73;95735.66;5049737;28;20512;-75
2023/07/20 11:24:35;;;;;;;;;;;;;;;22.49;42.03;95745.19;5047640;28;19921;-75
2023/07/20 11:27:02;;;;;;;;;;;;;;;22.27;42.33;95738.00;5051541;28;19932;-75
2023/07/20 11:29:28;;;;;;;;;;;;;;;22.54;41.91;95727.00;5052142;28;19927;-73
2023/07/20 11:31:54;;;;;;;;;;;;;;;22.44;42.09;95727.22;5051608;28;20298;-73
2023/07/20 11:34:22;;;;;;;;;;;;;;;22.83;40.64;95717.66;5050107;28;19936;-73
2023/07/20 11:36:49;;;;;;;;;;;;;;;22.99;40.58;95717.59;5052604;28;19927;-75
2023/07/20 11:39:18;;;;;;;;;;;;;;;23.35;40.75;95717.00;5052820;28;19924;-74
2023/07/20 11:41:45;;;;;;;;;;;;;;;23.60;40.28;95725.56;5045023;28;20441;-75
2023/07/20 11:44:13;;;;;;;;;;;;;;;23.45;40.29;95708.84;5049810;28;19925;-74
2023/07/20 11:46:39;;;;;;;;;;;;;;;23.71;40.55;95717.25;5052357;28;19983;-74
2023/07/20 11:49:06;;;;;;;;;;;;;;;23.59;39.54;95713.38;5051040;28;19928;-74
2023/07/20 11:51:34;;;;;;;;;;;;;;;23.03;39.17;95712.78;5051969;28;19920;-74
2023/07/20 11:54:02;;;;;;;;;;;;;;;23.02;40.79;95706.66;5052140;28;19924;-74
2023/07/20 11:56:28;;;;;;;;;;;;;;;23.34;39.67;95708.25;5043762;28;20020;-74
2023/07/20 11:59:00;;;;;;;;;;;;;;;23.57;38.49;95702.13;5052002;28;19925;-75
2023/07/20 12:01:28;;;;;;;;;;;;;;;23.84;40.36;95698.97;5052620;28;19924;-75
2023/07/20 12:03:55;;;;;;;;;;;;;;;23.54;38.30;95699.84;5051873;28;19920;-76
2023/07/20 12:06:23;;;;;;;;;;;;;;;23.24;38.60;95696.28;5052161;28;20401;-75
2023/07/20 12:08:51;;;;;;;;;;;;;;;23.11;38.48;95704.81;5048661;28;19921;-75
2023/07/20 12:11:31;;;;;;;;;;;;;;;23.05;37.78;95700.22;5050511;28;19952;-76
2023/07/20 12:13:58;;;;;;;;;;;;;;;23.08;38.93;95702.50;5051720;28;19928;-75
2023/07/20 12:16:27;;;;;;;;;;;;;;;23.29;40.95;95689.50;5046321;28;19925;-75
2023/07/20 12:18:59;;;;;;;;;;;;;;;22.84;40.28;95696.38;5051434;28;19920;-75
2023/07/20 12:21:26;;;;;;;;;;;;;;;23.10;38.85;95685.50;5050159;28;19921;-74
2023/07/20 12:23:53;;;;;;;;;;;;;;;23.09;39.72;95686.47;5052802;28;20283;-75
2023/07/20 12:26:22;;;;;;;;;;;;;;;22.96;38.03;95690.72;5051625;28;19975;-75
2023/07/20 12:28:49;;;;;;;;;;;;;;;23.14;39.02;95688.63;5051541;28;19964;-75
2023/07/20 12:31:15;;;;;;;;;;;;;;;22.81;39.69;95682.69;5051864;28;19921;-76
2023/07/20 12:33:41;;;;;;;;;;;;;;;22.81;39.94;95674.75;5051758;28;19928;-76
2023/07/20 12:36:08;;;;;;;;;;;;;;;22.84;39.20;95684.94;5051613;28;19921;-76
2023/07/20 12:38:34;;;;;;;;;;;;;;;22.64;39.94;95672.19;5049616;28;19925;-76
2023/07/20 12:41:02;;;;;;;;;;;;;;;22.55;40.52;95669.78;5049085;28;19927;-76
2023/07/20 12:43:29;;;;;;;;;;;;;;;22.82;39.77;95666.66;5049106;28;19928;-75
2023/07/20 12:45:55;;;;;;;;;;;;;;;23.12;39.45;95662.34;5050128;28;20394;-75